createdAt,value
2018-03-09T00:00:29.057Z,3.90
2018-03-09T00:03:12.587Z,3.90
2018-03-09T00:05:41.443Z,3.90
2018-03-09T00:08:09.556Z,3.90
2018-03-09T00:10:37.727Z,3.90
2018-03-09T00:13:05.836Z,3.90
2018-03-09T00:15:33.964Z,3.90
2018-03-09T00:18:02.088Z,4.00
2018-03-09T00:20:30.257Z,4.00
2018-03-09T00:22:58.474Z,4.00
2018-03-09T00:25:26.707Z,4.00
2018-03-09T00:27:54.832Z,4.00
2018-03-09T00:30:23.002Z,4.00
2018-03-09T00:32:51.813Z,4.10
2018-03-09T00:35:20.048Z,4.10
2018-03-09T00:37:48.181Z,4.00
2018-03-09T00:40:16.324Z,4.10
2018-03-09T00:42:51.977Z,4.10
2018-03-09T00:45:20.096Z,4.10
2018-03-09T00:47:48.256Z,4.10
2018-03-09T00:50:16.385Z,4.10
2018-03-09T00:52:44.704Z,4.10
2018-03-09T00:55:12.831Z,4.10
2018-03-09T00:57:40.934Z,4.10
2018-03-09T01:00:09.049Z,4.10
2018-03-09T01:02:37.214Z,4.10
2018-03-09T01:05:12.661Z,4.10
2018-03-09T01:07:40.776Z,4.10
2018-03-09T01:10:08.886Z,4.10
2018-03-09T01:12:43.937Z,4.10
2018-03-09T01:15:12.071Z,4.10
2018-03-09T01:17:40.196Z,4.10
2018-03-09T01:20:09.121Z,4.10
2018-03-09T01:22:37.212Z,4.10
2018-03-09T01:25:05.315Z,4.10
2018-03-09T01:27:33.491Z,4.10
2018-03-09T01:30:01.579Z,4.10
2018-03-09T01:32:30.767Z,4.10
2018-03-09T01:34:58.934Z,4.20
2018-03-09T01:37:27.856Z,4.20
2018-03-09T01:39:56.020Z,4.20
2018-03-09T01:42:24.892Z,4.20
2018-03-09T01:44:53.011Z,4.20
2018-03-09T01:47:22.525Z,4.30
2018-03-09T01:49:51.478Z,4.30
2018-03-09T01:52:32.582Z,4.30
2018-03-09T01:55:00.802Z,4.30
2018-03-09T01:57:28.939Z,4.30
2018-03-09T01:59:57.112Z,4.20
2018-03-09T02:02:25.255Z,4.20
2018-03-09T02:04:54.486Z,4.20
2018-03-09T02:07:22.699Z,4.10
2018-03-09T02:09:50.887Z,4.20
2018-03-09T02:12:19.031Z,4.20
2018-03-09T02:14:47.908Z,4.20
2018-03-09T02:17:16.015Z,4.20
2018-03-09T02:19:44.981Z,4.10
2018-03-09T02:22:13.457Z,4.10
2018-03-09T02:24:41.550Z,4.10
2018-03-09T02:27:15.087Z,4.10
2018-03-09T02:29:43.298Z,4.00
2018-03-09T02:32:11.432Z,4.00
2018-03-09T02:34:39.542Z,4.00
2018-03-09T02:37:08.609Z,3.90
2018-03-09T02:39:36.868Z,3.90
2018-03-09T02:42:06.156Z,3.80
2018-03-09T02:44:34.305Z,3.80
2018-03-09T02:47:02.464Z,3.80
2018-03-09T02:49:30.549Z,3.80
2018-03-09T02:51:58.682Z,3.80
2018-03-09T02:54:26.938Z,3.80
2018-03-09T02:56:55.076Z,3.80
2018-03-09T02:59:33.592Z,3.80
2018-03-09T03:02:01.724Z,3.80
2018-03-09T03:04:29.825Z,3.80
2018-03-09T03:06:57.946Z,3.90
2018-03-09T03:09:26.095Z,3.80
2018-03-09T03:11:55.440Z,3.80
2018-03-09T03:14:23.651Z,3.80
2018-03-09T03:16:51.813Z,3.80
2018-03-09T03:19:19.963Z,3.80
2018-03-09T03:21:48.078Z,3.80
2018-03-09T03:24:16.170Z,3.80
2018-03-09T03:26:44.272Z,3.80
2018-03-09T03:29:12.471Z,3.80
2018-03-09T03:31:40.611Z,3.80
2018-03-09T03:34:19.773Z,3.80
2018-03-09T03:36:47.909Z,3.80
2018-03-09T03:39:16.240Z,3.70
2018-03-09T03:41:46.376Z,3.70
2018-03-09T03:44:14.447Z,3.70
2018-03-09T03:46:42.620Z,3.70
2018-03-09T03:49:10.714Z,3.70
2018-03-09T03:51:38.857Z,3.70
2018-03-09T03:54:07.043Z,3.70
2018-03-09T03:56:35.177Z,3.70
2018-03-09T03:59:03.419Z,3.70
2018-03-09T04:01:31.594Z,3.70
2018-03-09T04:04:00.622Z,3.70
2018-03-09T04:06:28.751Z,3.70
2018-03-09T04:09:01.440Z,3.80
2018-03-09T04:11:29.600Z,3.70
2018-03-09T04:13:57.747Z,3.70
2018-03-09T04:16:25.841Z,3.70
2018-03-09T04:18:54.034Z,3.70
2018-03-09T04:21:22.131Z,3.70
2018-03-09T04:23:51.134Z,3.70
2018-03-09T04:26:42.512Z,3.70
2018-03-09T04:29:10.680Z,3.70
2018-03-09T04:31:39.895Z,3.80
2018-03-09T04:34:08.742Z,3.80
2018-03-09T04:36:36.854Z,3.80
2018-03-09T04:39:05.031Z,3.80
2018-03-09T04:41:33.232Z,3.80
2018-03-09T04:44:01.485Z,3.80
2018-03-09T04:46:29.676Z,3.80
2018-03-09T04:48:57.884Z,3.80
2018-03-09T04:51:25.999Z,3.80
2018-03-09T04:53:59.447Z,3.80
2018-03-09T04:56:27.587Z,3.90
2018-03-09T04:58:55.858Z,3.90
2018-03-09T05:01:24.003Z,3.90
2018-03-09T05:03:52.908Z,3.90
2018-03-09T05:06:21.735Z,3.90
2018-03-09T05:08:49.900Z,3.90
2018-03-09T05:11:18.364Z,3.90
2018-03-09T05:13:46.549Z,3.90
2018-03-09T05:16:14.708Z,3.90
2018-03-09T05:18:42.820Z,3.90
2018-03-09T05:21:11.868Z,3.90
2018-03-09T05:23:40.052Z,3.90
2018-03-09T05:26:08.183Z,3.90
2018-03-09T05:28:36.299Z,3.90
2018-03-09T05:31:04.445Z,3.90
2018-03-09T05:33:32.605Z,3.90
2018-03-09T05:36:00.985Z,3.90
2018-03-09T05:38:29.125Z,3.90
2018-03-09T05:40:58.060Z,3.90
2018-03-09T05:43:30.693Z,3.80
2018-03-09T05:45:59.557Z,3.80
2018-03-09T05:48:27.739Z,3.80
2018-03-09T05:50:55.855Z,3.80
2018-03-09T05:53:23.968Z,3.80
2018-03-09T05:55:53.066Z,3.80
2018-03-09T05:58:22.084Z,3.80
2018-03-09T06:00:50.977Z,3.80
2018-03-09T06:03:20.008Z,3.80
2018-03-09T06:05:48.293Z,3.70
2018-03-09T06:08:31.433Z,3.70
2018-03-09T06:10:59.951Z,3.70
2018-03-09T06:13:41.898Z,3.70
2018-03-09T06:16:10.134Z,3.70
2018-03-09T06:18:39.127Z,3.70
2018-03-09T06:21:08.060Z,3.70
2018-03-09T06:23:36.180Z,3.70
2018-03-09T06:26:04.399Z,3.70
2018-03-09T06:28:34.063Z,3.80
2018-03-09T06:31:02.224Z,3.80
2018-03-09T06:33:30.346Z,3.80
2018-03-09T06:35:58.530Z,3.90
2018-03-09T06:38:27.511Z,3.90
2018-03-09T06:40:55.601Z,3.90
2018-03-09T06:46:00.979Z,3.90
2018-03-09T06:48:29.208Z,3.90
2018-03-09T06:51:04.069Z,4.00
2018-03-09T06:53:34.287Z,4.00
2018-03-09T06:56:02.802Z,4.10
2018-03-09T06:58:43.873Z,4.10
2018-03-09T07:01:12.000Z,4.10
2018-03-09T07:03:40.106Z,4.20
2018-03-09T07:06:10.723Z,4.30
2018-03-09T07:08:38.919Z,4.20
2018-03-09T07:11:07.060Z,4.30
2018-03-09T07:13:35.153Z,4.30
2018-03-09T07:16:03.290Z,4.40
2018-03-09T07:18:32.387Z,4.40
2018-03-09T07:21:00.615Z,4.40
2018-03-09T07:23:28.724Z,4.40
2018-03-09T07:25:58.471Z,4.50
2018-03-09T07:28:26.604Z,4.50
2018-03-09T07:30:54.812Z,4.60
2018-03-09T07:33:23.707Z,4.60
2018-03-09T07:38:33.759Z,4.60
2018-03-09T07:41:01.891Z,4.70
2018-03-09T07:43:30.124Z,4.70
2018-03-09T07:46:13.249Z,4.80
2018-03-09T07:48:41.495Z,4.90
2018-03-09T07:51:23.590Z,4.90
2018-03-09T07:54:13.854Z,4.90
2018-03-09T07:57:07.139Z,4.80
2018-03-09T07:59:40.645Z,4.80
2018-03-09T08:02:08.830Z,4.80
2018-03-09T08:04:37.339Z,4.90
2018-03-09T08:07:05.647Z,5.00
2018-03-09T08:09:34.074Z,5.00
2018-03-09T08:12:07.112Z,5.10
2018-03-09T08:14:36.050Z,5.10
2018-03-09T08:17:05.626Z,5.10
2018-03-09T08:19:33.990Z,5.10
2018-03-09T08:22:03.169Z,5.10
2018-03-09T08:24:40.405Z,5.20
2018-03-09T08:27:09.203Z,5.30
2018-03-09T08:29:37.440Z,5.30
2018-03-09T08:32:11.186Z,5.30
2018-03-09T08:34:41.969Z,5.30
2018-03-09T08:37:10.189Z,5.40
2018-03-09T08:39:38.461Z,5.50
2018-03-09T08:42:06.742Z,5.50
2018-03-09T08:44:34.986Z,5.60
2018-03-09T08:47:03.230Z,5.50
2018-03-09T08:49:32.366Z,5.50
2018-03-09T08:52:00.998Z,5.60
2018-03-09T08:54:29.508Z,5.60
2018-03-09T08:56:58.445Z,5.70
2018-03-09T08:59:26.835Z,5.60
2018-03-09T09:01:55.406Z,5.70
2018-03-09T09:04:23.781Z,5.80
2018-03-09T09:06:55.350Z,5.90
2018-03-09T09:09:23.953Z,5.80
2018-03-09T09:11:52.865Z,5.90
2018-03-09T09:14:23.585Z,5.90
2018-03-09T09:16:51.923Z,6.10
2018-03-09T09:19:20.965Z,6.10
2018-03-09T09:21:49.683Z,6.00
2018-03-09T09:24:20.926Z,6.20
2018-03-09T09:26:49.378Z,6.30
2018-03-09T09:29:19.699Z,6.40
2018-03-09T09:31:48.401Z,6.40
2018-03-09T09:34:20.093Z,6.50
2018-03-09T09:36:48.894Z,6.70
2018-03-09T09:39:17.479Z,6.60
2018-03-09T09:41:50.584Z,6.60
2018-03-09T09:44:19.056Z,6.70
2018-03-09T09:46:47.364Z,6.60
2018-03-09T09:49:19.439Z,6.60
2018-03-09T09:51:48.221Z,6.50
2018-03-09T09:54:16.984Z,6.50
2018-03-09T09:56:45.951Z,6.50
2018-03-09T09:59:14.152Z,6.60
2018-03-09T10:01:42.582Z,6.70
2018-03-09T10:04:10.900Z,6.60
2018-03-09T10:06:39.146Z,6.80
2018-03-09T10:09:08.229Z,6.80
2018-03-09T10:11:38.330Z,6.80
2018-03-09T10:14:10.512Z,6.80
2018-03-09T10:16:38.850Z,6.80
2018-03-09T10:19:07.877Z,7.00
2018-03-09T10:21:36.191Z,7.00
2018-03-09T10:24:04.670Z,7.20
2018-03-09T10:26:32.961Z,7.10
2018-03-09T10:29:04.943Z,7.20
2018-03-09T10:31:33.873Z,7.30
2018-03-09T10:34:04.387Z,7.30
2018-03-09T10:36:32.860Z,7.30
2018-03-09T10:39:01.200Z,7.40
2018-03-09T10:41:30.081Z,7.60
2018-03-09T10:43:58.566Z,7.60
2018-03-09T10:46:27.195Z,7.50
2018-03-09T10:48:56.339Z,7.50
2018-03-09T10:51:26.006Z,7.70
2018-03-09T10:53:54.391Z,7.70
2018-03-09T10:56:23.087Z,7.40
2018-03-09T10:58:51.436Z,7.30
2018-03-09T11:03:52.831Z,7.40
2018-03-09T11:08:53.587Z,7.50
2018-03-09T11:11:23.200Z,7.40
2018-03-09T11:13:51.951Z,7.40
2018-03-09T11:16:20.354Z,7.40
2018-03-09T11:21:22.103Z,7.70
2018-03-09T11:23:50.713Z,7.60
2018-03-09T11:26:19.024Z,7.60
2018-03-09T11:28:49.454Z,7.90
2018-03-09T11:31:18.015Z,7.90
2018-03-09T11:33:46.605Z,8.00
2018-03-09T11:36:17.178Z,8.20
2018-03-09T11:38:45.671Z,8.10
2018-03-09T11:41:14.799Z,7.90
2018-03-09T11:43:43.025Z,7.90
2018-03-09T11:46:11.333Z,7.70
2018-03-09T11:48:39.650Z,7.60
2018-03-09T11:51:08.070Z,7.60
2018-03-09T11:53:36.729Z,7.50
2018-03-09T11:56:05.784Z,7.50
2018-03-09T11:58:34.056Z,7.50
2018-03-09T12:01:02.498Z,7.40
2018-03-09T12:03:31.441Z,7.30
2018-03-09T12:09:00.449Z,7.10
2018-03-09T12:11:28.891Z,7.00
2018-03-09T12:13:57.202Z,7.00
2018-03-09T12:16:25.450Z,7.10
2018-03-09T12:18:54.291Z,7.20
2018-03-09T12:21:23.957Z,7.40
2018-03-09T12:23:52.213Z,7.50
2018-03-09T12:26:20.857Z,7.80
2018-03-09T12:28:49.139Z,8.00
2018-03-09T12:31:17.326Z,8.10
2018-03-09T12:33:45.841Z,8.30
2018-03-09T12:36:14.193Z,8.30
2018-03-09T12:38:42.676Z,8.30
2018-03-09T12:41:10.899Z,8.30
2018-03-09T12:43:40.911Z,8.40
2018-03-09T12:46:10.085Z,8.40
2018-03-09T12:48:38.842Z,8.30
2018-03-09T12:51:07.107Z,8.30
2018-03-09T12:53:36.008Z,8.20
2018-03-09T12:56:04.335Z,8.20
2018-03-09T12:58:32.633Z,8.30
2018-03-09T13:01:00.916Z,8.20
2018-03-09T13:03:29.347Z,8.20
2018-03-09T13:05:57.614Z,8.30
2018-03-09T13:08:25.827Z,8.30
2018-03-09T13:10:54.160Z,8.40
2018-03-09T13:13:23.326Z,8.40
2018-03-09T13:15:54.436Z,8.50
2018-03-09T13:18:28.167Z,8.30
2018-03-09T13:20:58.545Z,8.20
2018-03-09T13:23:28.829Z,8.20
2018-03-09T13:29:09.275Z,8.20
2018-03-09T13:31:37.502Z,8.30
2018-03-09T13:34:05.756Z,8.50
2018-03-09T13:36:34.031Z,8.80
2018-03-09T13:39:03.151Z,9.00
2018-03-09T13:41:33.837Z,9.00
2018-03-09T13:44:02.060Z,9.00
2018-03-09T13:46:30.205Z,9.00
2018-03-09T13:48:58.731Z,8.90
2018-03-09T13:51:27.116Z,8.70
2018-03-09T13:53:56.076Z,8.50
2018-03-09T13:56:24.456Z,8.50
2018-03-09T13:58:52.932Z,8.50
2018-03-09T14:01:21.300Z,8.60
2018-03-09T14:03:49.422Z,8.90
2018-03-09T14:06:17.554Z,9.00
2018-03-09T14:08:45.891Z,8.90
2018-03-09T14:11:14.861Z,8.70
2018-03-09T14:13:42.993Z,8.40
2018-03-09T14:16:11.170Z,8.30
2018-03-09T14:18:39.292Z,8.20
2018-03-09T14:21:07.411Z,8.20
2018-03-09T14:23:35.556Z,8.00
2018-03-09T14:26:04.419Z,8.00
2018-03-09T14:28:32.689Z,7.90
2018-03-09T14:31:00.811Z,7.80
2018-03-09T14:33:29.292Z,7.80
2018-03-09T14:35:57.540Z,7.80
2018-03-09T14:38:25.693Z,7.80
2018-03-09T14:40:53.989Z,8.00
2018-03-09T14:43:22.250Z,8.10
2018-03-09T14:45:50.588Z,8.20
2018-03-09T14:48:19.478Z,8.30
2018-03-09T14:50:47.660Z,8.30
2018-03-09T14:53:16.178Z,8.30
2018-03-09T14:55:44.344Z,8.30
2018-03-09T14:58:13.426Z,8.40
2018-03-09T15:00:41.802Z,8.50
2018-03-09T15:03:09.884Z,8.60
2018-03-09T15:05:38.365Z,8.50
2018-03-09T15:08:06.667Z,8.40
2018-03-09T15:10:35.111Z,8.40
2018-03-09T15:13:04.187Z,8.30
2018-03-09T15:15:33.391Z,8.30
2018-03-09T15:18:02.540Z,8.50
2018-03-09T15:20:31.692Z,8.50
2018-03-09T15:22:59.912Z,8.40
2018-03-09T15:25:28.007Z,8.20
2018-03-09T15:27:56.180Z,8.10
2018-03-09T15:30:24.703Z,8.00
2018-03-09T15:32:55.634Z,8.00
2018-03-09T15:35:26.636Z,7.90
2018-03-09T15:38:00.681Z,7.90
2018-03-09T15:40:28.796Z,7.80
2018-03-09T15:42:57.076Z,7.90
2018-03-09T15:45:26.268Z,7.90
2018-03-09T15:47:55.404Z,7.90
2018-03-09T15:50:23.856Z,7.80
2018-03-09T15:52:52.057Z,7.80
2018-03-09T15:55:20.312Z,7.70
2018-03-09T15:57:53.474Z,7.70
2018-03-09T16:00:34.196Z,7.70
2018-03-09T16:03:02.676Z,7.60
2018-03-09T16:05:31.914Z,7.60
2018-03-09T16:08:00.103Z,7.60
2018-03-09T16:10:30.414Z,7.50
2018-03-09T16:16:09.562Z,7.40
2018-03-09T16:18:38.058Z,7.30
2018-03-09T16:21:06.336Z,7.30
2018-03-09T16:23:35.920Z,7.20
2018-03-09T16:26:12.637Z,7.20
2018-03-09T16:28:42.925Z,7.10
2018-03-09T16:31:12.098Z,7.00
2018-03-09T16:33:43.876Z,7.00
2018-03-09T16:39:13.848Z,7.00
2018-03-09T16:41:43.418Z,7.00
2018-03-09T16:44:15.124Z,7.00
2018-03-09T16:46:43.868Z,7.00
2018-03-09T16:49:14.116Z,7.00
2018-03-09T16:51:42.452Z,7.00
2018-03-09T16:54:13.232Z,7.00
2018-03-09T16:56:45.756Z,7.00
2018-03-09T16:59:14.020Z,7.00
2018-03-09T17:01:44.196Z,7.00
2018-03-09T17:04:15.486Z,7.00
2018-03-09T17:06:45.640Z,7.00
2018-03-09T17:09:14.560Z,6.90
2018-03-09T17:11:42.841Z,6.80
2018-03-09T17:14:11.056Z,6.70
2018-03-09T17:16:39.177Z,6.70
2018-03-09T17:19:07.366Z,6.70
2018-03-09T17:21:39.567Z,6.80
2018-03-09T17:24:12.843Z,6.80
2018-03-09T17:26:43.349Z,6.80
2018-03-09T17:29:17.917Z,6.80
2018-03-09T17:31:46.067Z,6.80
2018-03-09T17:34:16.508Z,6.80
2018-03-09T17:36:45.485Z,6.80
2018-03-09T17:39:13.694Z,6.90
2018-03-09T17:41:43.704Z,6.90
2018-03-09T17:44:11.939Z,7.00
2018-03-09T17:46:40.242Z,7.00
2018-03-09T17:49:08.519Z,6.90
2018-03-09T17:51:37.878Z,6.90
2018-03-09T17:54:06.058Z,6.80
2018-03-09T17:56:34.250Z,6.80
2018-03-09T17:59:02.445Z,6.70
2018-03-09T18:01:30.825Z,6.60
2018-03-09T18:04:02.685Z,6.40
2018-03-09T18:06:31.913Z,6.30
2018-03-09T18:09:00.206Z,6.20
2018-03-09T18:11:28.791Z,6.00
2018-03-09T18:13:57.017Z,5.90
2018-03-09T18:16:25.287Z,5.80
2018-03-09T18:18:53.780Z,5.70
2018-03-09T18:21:22.132Z,5.60
2018-03-09T18:23:50.378Z,5.50
2018-03-09T18:26:18.545Z,5.50
2018-03-09T18:28:48.228Z,5.40
2018-03-09T18:31:16.400Z,5.40
2018-03-09T18:33:44.500Z,5.50
2018-03-09T18:36:12.638Z,5.50
2018-03-09T18:38:40.861Z,5.50
2018-03-09T18:41:09.174Z,5.50
2018-03-09T18:43:37.415Z,5.40
2018-03-09T18:46:06.974Z,5.10
2018-03-09T18:48:42.503Z,5.10
2018-03-09T18:51:11.187Z,5.00
2018-03-09T18:53:39.540Z,5.00
2018-03-09T18:56:07.755Z,5.00
2018-03-09T18:58:35.874Z,5.00
2018-03-09T19:01:04.297Z,5.10
2018-03-09T19:03:33.667Z,5.20
2018-03-09T19:06:01.838Z,5.20
2018-03-09T19:08:30.127Z,5.20
2018-03-09T19:10:58.393Z,5.20
2018-03-09T19:13:26.665Z,5.10
2018-03-09T19:15:54.791Z,5.10
2018-03-09T19:18:22.908Z,5.00
2018-03-09T19:20:51.201Z,4.90
2018-03-09T19:23:19.781Z,4.80
2018-03-09T19:25:47.985Z,4.80
2018-03-09T19:28:16.444Z,4.80
2018-03-09T19:30:44.716Z,4.80
2018-03-09T19:33:12.948Z,4.80
2018-03-09T19:35:42.387Z,4.80
2018-03-09T19:38:11.125Z,4.80
2018-03-09T19:40:39.327Z,4.80
2018-03-09T19:43:07.485Z,4.70
2018-03-09T19:45:36.411Z,4.80
2018-03-09T19:48:04.630Z,4.90
2018-03-09T19:50:32.841Z,5.00
2018-03-09T19:53:00.954Z,5.00
2018-03-09T19:55:29.075Z,5.00
2018-03-09T19:57:57.483Z,5.00
2018-03-09T20:00:25.596Z,5.00
2018-03-09T20:02:54.244Z,5.00
2018-03-09T20:05:22.433Z,4.90
2018-03-09T20:07:50.573Z,4.90
2018-03-09T20:10:18.857Z,4.80
2018-03-09T20:12:47.050Z,4.80
2018-03-09T20:15:15.116Z,4.80
2018-03-09T20:17:43.292Z,4.70
2018-03-09T20:20:11.574Z,4.70
2018-03-09T20:22:39.729Z,4.60
2018-03-09T20:25:09.161Z,4.60
2018-03-09T20:27:37.393Z,4.60
2018-03-09T20:30:06.501Z,4.50
2018-03-09T20:32:34.818Z,4.60
2018-03-09T20:35:02.953Z,4.50
2018-03-09T20:37:31.215Z,4.50
2018-03-09T20:39:59.577Z,4.50
2018-03-09T20:42:27.939Z,4.50
2018-03-09T20:44:56.985Z,4.50
2018-03-09T20:47:25.447Z,4.40
2018-03-09T20:49:53.660Z,4.40
2018-03-09T20:52:23.702Z,4.30
2018-03-09T20:54:51.869Z,4.30
2018-03-09T20:57:19.990Z,4.30
2018-03-09T20:59:48.155Z,4.30
2018-03-09T21:02:16.279Z,4.30
2018-03-09T21:04:45.261Z,4.30
2018-03-09T21:07:13.616Z,4.30
2018-03-09T21:09:41.741Z,4.30
2018-03-09T21:12:09.876Z,4.40
2018-03-09T21:14:38.805Z,4.50
2018-03-09T21:17:07.000Z,4.50
2018-03-09T21:19:35.172Z,4.50
2018-03-09T21:22:03.287Z,4.50
2018-03-09T21:24:31.686Z,4.40
2018-03-09T21:26:59.805Z,4.40
2018-03-09T21:29:28.002Z,4.40
2018-03-09T21:31:56.317Z,4.40
2018-03-09T21:34:24.670Z,4.40
2018-03-09T21:36:53.687Z,4.30
2018-03-09T21:39:23.724Z,4.30
2018-03-09T21:41:52.375Z,4.20
2018-03-09T21:44:20.524Z,4.20
2018-03-09T21:46:48.648Z,4.10
2018-03-09T21:49:16.796Z,4.00
2018-03-09T21:51:44.928Z,4.00
2018-03-09T21:54:13.099Z,4.00
2018-03-09T21:56:41.243Z,4.00
2018-03-09T21:59:10.155Z,4.00
2018-03-09T22:01:38.338Z,4.10
2018-03-09T22:04:10.079Z,4.10
2018-03-09T22:06:39.221Z,4.00
2018-03-09T22:09:07.396Z,4.00
2018-03-09T22:11:36.354Z,3.80
2018-03-09T22:14:04.566Z,3.80
2018-03-09T22:16:32.703Z,3.70
2018-03-09T22:19:01.105Z,3.60
2018-03-09T22:21:29.232Z,3.50
2018-03-09T22:23:58.150Z,3.40
2018-03-09T22:26:26.262Z,3.40
2018-03-09T22:28:54.391Z,3.30
2018-03-09T22:31:22.503Z,3.20
2018-03-09T22:33:51.223Z,3.20
2018-03-09T22:36:19.355Z,3.20
2018-03-09T22:38:47.521Z,3.20
2018-03-09T22:41:15.661Z,3.20
2018-03-09T22:43:43.953Z,3.20
2018-03-09T22:46:12.120Z,3.20
2018-03-09T22:48:40.326Z,3.20
2018-03-09T22:51:08.445Z,3.20
2018-03-09T22:53:36.675Z,3.20
2018-03-09T22:56:04.830Z,3.20
2018-03-09T22:58:32.968Z,3.20
2018-03-09T23:01:01.244Z,3.30
2018-03-09T23:03:29.400Z,3.30
2018-03-09T23:05:57.669Z,3.30
2018-03-09T23:08:25.791Z,3.30
2018-03-09T23:10:55.593Z,3.40
2018-03-09T23:13:23.705Z,3.40
2018-03-09T23:15:52.137Z,3.40
2018-03-09T23:18:23.155Z,3.40
2018-03-09T23:20:53.034Z,3.40
2018-03-09T23:23:21.135Z,3.40
2018-03-09T23:25:49.487Z,3.40
2018-03-09T23:28:17.586Z,3.40
2018-03-09T23:30:45.776Z,3.40
2018-03-09T23:33:14.033Z,3.40
2018-03-09T23:35:42.165Z,3.40
2018-03-09T23:38:10.344Z,3.40
2018-03-09T23:40:38.588Z,3.40
2018-03-09T23:43:06.692Z,3.40
2018-03-09T23:45:34.903Z,3.40
2018-03-09T23:48:03.071Z,3.30
2018-03-09T23:50:32.160Z,3.30
2018-03-09T23:53:00.296Z,3.20
2018-03-09T23:55:28.625Z,3.10
2018-03-09T23:57:56.872Z,3.00
